sensor_id;sensor_type;location;lat;lon;timestamp;P1;durP1;ratioP1;P2;durP2;ratioP2
11422;SDS011;5768;51.476;7.210;2024-03-08T00:00:04;14.50;;;13.10;;
11422;SDS011;5768;51.476;7.210;2024-03-08T00:05:12;14.53;;;13.13;;
11422;SDS011;5768;51.476;7.210;2024-03-08T00:10:16;14.83;;;13.40;;
11422;SDS011;5768;51.476;7.210;2024-03-08T00:15:22;16.10;;;14.10;;
11422;SDS011;5768;51.476;7.210;2024-03-08T00:20:24;15.80;;;14.10;;
11422;SDS011;5768;51.476;7.210;2024-03-08T00:25:26;15.37;;;13.77;;
11422;SDS011;5768;51.476;7.210;2024-03-08T00:30:30;15.40;;;13.90;;
11422;SDS011;5768;51.476;7.210;2024-03-08T00:35:32;14.97;;;13.37;;
11422;SDS011;5768;51.476;7.210;2024-03-08T00:40:34;18.23;;;14.97;;
11422;SDS011;5768;51.476;7.210;2024-03-08T00:45:37;15.90;;;14.30;;
11422;SDS011;5768;51.476;7.210;2024-03-08T00:50:42;16.37;;;14.67;;
11422;SDS011;5768;51.476;7.210;2024-03-08T00:55:45;16.30;;;14.60;;
11422;SDS011;5768;51.476;7.210;2024-03-08T01:00:49;16.23;;;14.60;;
11422;SDS011;5768;51.476;7.210;2024-03-08T01:05:52;16.03;;;14.43;;
11422;SDS011;5768;51.476;7.210;2024-03-08T01:10:54;16.03;;;14.43;;
11422;SDS011;5768;51.476;7.210;2024-03-08T01:15:57;16.20;;;14.53;;
11422;SDS011;5768;51.476;7.210;2024-03-08T01:20:59;16.27;;;14.73;;
11422;SDS011;5768;51.476;7.210;2024-03-08T01:26:01;16.83;;;15.13;;
11422;SDS011;5768;51.476;7.210;2024-03-08T01:31:05;16.00;;;14.40;;
11422;SDS011;5768;51.476;7.210;2024-03-08T01:36:07;15.77;;;14.17;;
11422;SDS011;5768;51.476;7.210;2024-03-08T01:41:10;16.30;;;14.10;;
11422;SDS011;5768;51.476;7.210;2024-03-08T01:46:15;18.53;;;14.97;;
11422;SDS011;5768;51.476;7.210;2024-03-08T01:51:22;16.83;;;15.00;;
11422;SDS011;5768;51.476;7.210;2024-03-08T01:56:24;16.20;;;14.40;;
11422;SDS011;5768;51.476;7.210;2024-03-08T02:01:28;17.03;;;15.23;;
11422;SDS011;5768;51.476;7.210;2024-03-08T02:06:30;16.73;;;14.87;;
11422;SDS011;5768;51.476;7.210;2024-03-08T02:11:33;16.27;;;14.53;;
11422;SDS011;5768;51.476;7.210;2024-03-08T02:16:37;16.90;;;15.20;;
11422;SDS011;5768;51.476;7.210;2024-03-08T02:21:41;15.73;;;14.13;;
11422;SDS011;5768;51.476;7.210;2024-03-08T02:26:43;16.07;;;14.37;;
11422;SDS011;5768;51.476;7.210;2024-03-08T02:31:46;16.83;;;15.03;;
11422;SDS011;5768;51.476;7.210;2024-03-08T02:36:49;16.87;;;15.07;;
11422;SDS011;5768;51.476;7.210;2024-03-08T02:41:51;16.53;;;14.83;;
11422;SDS011;5768;51.476;7.210;2024-03-08T02:46:54;17.07;;;15.27;;
11422;SDS011;5768;51.476;7.210;2024-03-08T02:51:57;17.67;;;15.73;;
11422;SDS011;5768;51.476;7.210;2024-03-08T02:57:00;16.00;;;14.33;;
11422;SDS011;5768;51.476;7.210;2024-03-08T03:02:04;16.50;;;14.73;;
11422;SDS011;5768;51.476;7.210;2024-03-08T03:07:08;17.23;;;14.93;;
11422;SDS011;5768;51.476;7.210;2024-03-08T03:12:11;16.43;;;14.73;;
11422;SDS011;5768;51.476;7.210;2024-03-08T03:17:14;16.50;;;14.70;;
11422;SDS011;5768;51.476;7.210;2024-03-08T03:22:18;17.13;;;15.40;;
11422;SDS011;5768;51.476;7.210;2024-03-08T03:27:20;18.77;;;15.30;;
11422;SDS011;5768;51.476;7.210;2024-03-08T03:32:23;16.77;;;15.07;;
11422;SDS011;5768;51.476;7.210;2024-03-08T03:37:27;17.80;;;15.47;;
11422;SDS011;5768;51.476;7.210;2024-03-08T03:42:29;17.60;;;15.70;;
11422;SDS011;5768;51.476;7.210;2024-03-08T03:47:31;17.50;;;15.70;;
11422;SDS011;5768;51.476;7.210;2024-03-08T03:52:35;17.70;;;15.47;;
11422;SDS011;5768;51.476;7.210;2024-03-08T03:57:37;17.70;;;15.83;;
11422;SDS011;5768;51.476;7.210;2024-03-08T04:02:39;16.80;;;15.00;;
11422;SDS011;5768;51.476;7.210;2024-03-08T04:07:43;17.80;;;15.90;;
11422;SDS011;5768;51.476;7.210;2024-03-08T04:12:45;21.07;;;17.37;;
11422;SDS011;5768;51.476;7.210;2024-03-08T04:17:48;17.83;;;16.00;;
11422;SDS011;5768;51.476;7.210;2024-03-08T04:22:51;18.97;;;16.67;;
11422;SDS011;5768;51.476;7.210;2024-03-08T04:27:54;20.80;;;17.00;;
11422;SDS011;5768;51.476;7.210;2024-03-08T04:32:56;22.00;;;17.50;;
11422;SDS011;5768;51.476;7.210;2024-03-08T04:38:00;20.87;;;17.60;;
11422;SDS011;5768;51.476;7.210;2024-03-08T04:43:05;18.83;;;16.87;;
11422;SDS011;5768;51.476;7.210;2024-03-08T04:48:08;20.50;;;17.60;;
11422;SDS011;5768;51.476;7.210;2024-03-08T04:53:13;20.60;;;17.93;;
11422;SDS011;5768;51.476;7.210;2024-03-08T04:58:15;19.57;;;17.43;;
11422;SDS011;5768;51.476;7.210;2024-03-08T05:03:17;21.30;;;17.90;;
11422;SDS011;5768;51.476;7.210;2024-03-08T05:08:22;19.73;;;17.63;;
11422;SDS011;5768;51.476;7.210;2024-03-08T05:13:26;21.53;;;18.33;;
11422;SDS011;5768;51.476;7.210;2024-03-08T05:18:28;19.97;;;17.87;;
11422;SDS011;5768;51.476;7.210;2024-03-08T05:23:33;20.07;;;17.87;;
11422;SDS011;5768;51.476;7.210;2024-03-08T05:28:36;19.63;;;17.53;;
11422;SDS011;5768;51.476;7.210;2024-03-08T05:33:38;20.27;;;18.17;;
11422;SDS011;5768;51.476;7.210;2024-03-08T05:38:44;19.70;;;17.13;;
11422;SDS011;5768;51.476;7.210;2024-03-08T05:43:46;20.47;;;18.27;;
11422;SDS011;5768;51.476;7.210;2024-03-08T05:48:48;20.50;;;18.00;;
11422;SDS011;5768;51.476;7.210;2024-03-08T05:53:52;20.57;;;18.40;;
11422;SDS011;5768;51.476;7.210;2024-03-08T05:58:57;20.97;;;18.33;;
11422;SDS011;5768;51.476;7.210;2024-03-08T06:03:59;21.40;;;18.17;;
11422;SDS011;5768;51.476;7.210;2024-03-08T06:09:03;21.87;;;18.77;;
11422;SDS011;5768;51.476;7.210;2024-03-08T06:14:11;21.40;;;19.10;;
11422;SDS011;5768;51.476;7.210;2024-03-08T06:19:13;20.20;;;17.90;;
11422;SDS011;5768;51.476;7.210;2024-03-08T06:24:17;21.67;;;18.80;;
11422;SDS011;5768;51.476;7.210;2024-03-08T06:29:19;20.90;;;18.60;;
11422;SDS011;5768;51.476;7.210;2024-03-08T06:34:21;22.93;;;18.23;;
11422;SDS011;5768;51.476;7.210;2024-03-08T06:39:25;20.83;;;18.63;;
11422;SDS011;5768;51.476;7.210;2024-03-08T06:44:30;22.00;;;18.60;;
11422;SDS011;5768;51.476;7.210;2024-03-08T06:49:33;20.97;;;18.73;;
11422;SDS011;5768;51.476;7.210;2024-03-08T06:54:36;20.77;;;17.43;;
11422;SDS011;5768;51.476;7.210;2024-03-08T06:59:39;23.17;;;18.43;;
11422;SDS011;5768;51.476;7.210;2024-03-08T07:04:41;21.73;;;17.40;;
11422;SDS011;5768;51.476;7.210;2024-03-08T07:09:46;22.27;;;19.23;;
11422;SDS011;5768;51.476;7.210;2024-03-08T07:14:49;19.80;;;17.60;;
11422;SDS011;5768;51.476;7.210;2024-03-08T07:19:51;21.30;;;17.67;;
11422;SDS011;5768;51.476;7.210;2024-03-08T07:24:55;20.47;;;17.77;;
11422;SDS011;5768;51.476;7.210;2024-03-08T07:30:17;20.10;;;17.97;;
11422;SDS011;5768;51.476;7.210;2024-03-08T07:35:37;22.43;;;18.73;;
11422;SDS011;5768;51.476;7.210;2024-03-08T07:40:41;19.60;;;17.47;;
11422;SDS011;5768;51.476;7.210;2024-03-08T07:45:45;20.20;;;18.03;;
11422;SDS011;5768;51.476;7.210;2024-03-08T07:50:47;20.30;;;18.10;;
11422;SDS011;5768;51.476;7.210;2024-03-08T07:55:51;22.63;;;18.63;;
11422;SDS011;5768;51.476;7.210;2024-03-08T08:00:54;21.33;;;18.40;;
11422;SDS011;5768;51.476;7.210;2024-03-08T08:05:56;20.43;;;17.07;;
11422;SDS011;5768;51.476;7.210;2024-03-08T08:11:00;19.60;;;16.77;;
11422;SDS011;5768;51.476;7.210;2024-03-08T08:16:03;19.53;;;17.07;;
11422;SDS011;5768;51.476;7.210;2024-03-08T08:21:06;22.93;;;17.97;;
11422;SDS011;5768;51.476;7.210;2024-03-08T08:26:09;20.63;;;17.60;;
11422;SDS011;5768;51.476;7.210;2024-03-08T08:31:12;20.00;;;17.67;;
11422;SDS011;5768;51.476;7.210;2024-03-08T08:36:15;20.10;;;17.13;;
11422;SDS011;5768;51.476;7.210;2024-03-08T08:41:20;20.03;;;17.13;;
11422;SDS011;5768;51.476;7.210;2024-03-08T08:46:22;23.50;;;17.43;;
11422;SDS011;5768;51.476;7.210;2024-03-08T08:51:24;20.63;;;17.77;;
11422;SDS011;5768;51.476;7.210;2024-03-08T08:56:29;19.00;;;16.53;;
11422;SDS011;5768;51.476;7.210;2024-03-08T09:01:31;18.40;;;16.50;;
11422;SDS011;5768;51.476;7.210;2024-03-08T09:06:33;18.93;;;16.37;;
11422;SDS011;5768;51.476;7.210;2024-03-08T09:11:37;17.97;;;16.03;;
11422;SDS011;5768;51.476;7.210;2024-03-08T09:16:41;18.30;;;16.40;;
11422;SDS011;5768;51.476;7.210;2024-03-08T09:21:43;18.40;;;16.50;;
11422;SDS011;5768;51.476;7.210;2024-03-08T09:26:47;18.97;;;16.97;;
11422;SDS011;5768;51.476;7.210;2024-03-08T09:31:50;19.30;;;16.10;;
11422;SDS011;5768;51.476;7.210;2024-03-08T09:36:52;18.10;;;16.20;;
11422;SDS011;5768;51.476;7.210;2024-03-08T09:41:56;18.40;;;16.33;;
11422;SDS011;5768;51.476;7.210;2024-03-08T09:46:58;18.27;;;16.03;;
11422;SDS011;5768;51.476;7.210;2024-03-08T09:52:02;20.33;;;17.20;;
11422;SDS011;5768;51.476;7.210;2024-03-08T09:57:07;18.37;;;16.47;;
11422;SDS011;5768;51.476;7.210;2024-03-08T10:02:12;18.10;;;16.33;;
11422;SDS011;5768;51.476;7.210;2024-03-08T10:07:16;20.30;;;17.57;;
11422;SDS011;5768;51.476;7.210;2024-03-08T10:12:20;18.30;;;16.40;;
11422;SDS011;5768;51.476;7.210;2024-03-08T10:17:23;17.83;;;16.03;;
11422;SDS011;5768;51.476;7.210;2024-03-08T10:22:27;19.00;;;17.10;;
11422;SDS011;5768;51.476;7.210;2024-03-08T10:27:31;18.70;;;16.80;;
11422;SDS011;5768;51.476;7.210;2024-03-08T10:32:36;18.50;;;16.67;;
11422;SDS011;5768;51.476;7.210;2024-03-08T10:37:40;18.83;;;16.83;;
11422;SDS011;5768;51.476;7.210;2024-03-08T10:42:53;18.57;;;16.70;;
11422;SDS011;5768;51.476;7.210;2024-03-08T10:48:15;18.93;;;16.87;;
11422;SDS011;5768;51.476;7.210;2024-03-08T10:53:32;20.73;;;16.50;;
11422;SDS011;5768;51.476;7.210;2024-03-08T10:58:44;19.33;;;17.20;;
11422;SDS011;5768;51.476;7.210;2024-03-08T11:03:51;17.80;;;16.00;;
11422;SDS011;5768;51.476;7.210;2024-03-08T11:08:56;18.67;;;16.67;;
11422;SDS011;5768;51.476;7.210;2024-03-08T11:14:00;18.17;;;16.37;;
11422;SDS011;5768;51.476;7.210;2024-03-08T11:19:05;18.77;;;16.77;;
11422;SDS011;5768;51.476;7.210;2024-03-08T11:24:25;17.80;;;16.00;;
11422;SDS011;5768;51.476;7.210;2024-03-08T11:29:42;18.17;;;16.10;;
11422;SDS011;5768;51.476;7.210;2024-03-08T11:35:05;19.20;;;17.27;;
11422;SDS011;5768;51.476;7.210;2024-03-08T11:40:18;21.47;;;17.97;;
11422;SDS011;5768;51.476;7.210;2024-03-08T11:45:26;17.10;;;15.40;;
11422;SDS011;5768;51.476;7.210;2024-03-08T11:50:51;17.33;;;15.53;;
11422;SDS011;5768;51.476;7.210;2024-03-08T11:56:09;17.55;;;15.40;;
11422;SDS011;5768;51.476;7.210;2024-03-08T12:01:16;16.80;;;15.02;;
11422;SDS011;5768;51.476;7.210;2024-03-08T12:06:19;16.05;;;14.35;;
11422;SDS011;5768;51.476;7.210;2024-03-08T12:11:29;17.02;;;15.40;;
11422;SDS011;5768;51.476;7.210;2024-03-08T12:16:51;14.88;;;13.32;;
11422;SDS011;5768;51.476;7.210;2024-03-08T12:22:06;14.27;;;12.77;;
11422;SDS011;5768;51.476;7.210;2024-03-08T12:27:17;12.73;;;11.43;;
11422;SDS011;5768;51.476;7.210;2024-03-08T12:32:27;14.10;;;10.55;;
11422;SDS011;5768;51.476;7.210;2024-03-08T12:37:37;11.15;;;9.85;;
11422;SDS011;5768;51.476;7.210;2024-03-08T12:47:58;7.75;;;6.95;;
11422;SDS011;5768;51.476;7.210;2024-03-08T12:53:00;10.10;;;9.10;;
11422;SDS011;5768;51.476;7.210;2024-03-08T12:58:06;10.38;;;8.93;;
11422;SDS011;5768;51.476;7.210;2024-03-08T13:03:10;8.77;;;7.97;;
11422;SDS011;5768;51.476;7.210;2024-03-08T13:08:12;8.65;;;7.75;;
11422;SDS011;5768;51.476;7.210;2024-03-08T13:13:16;8.93;;;8.00;;
11422;SDS011;5768;51.476;7.210;2024-03-08T13:18:19;8.65;;;7.80;;
11422;SDS011;5768;51.476;7.210;2024-03-08T13:23:22;9.30;;;7.20;;
11422;SDS011;5768;51.476;7.210;2024-03-08T13:28:25;8.30;;;7.60;;
11422;SDS011;5768;51.476;7.210;2024-03-08T13:33:38;8.48;;;7.68;;
11422;SDS011;5768;51.476;7.210;2024-03-08T13:38:49;8.80;;;8.00;;
11422;SDS011;5768;51.476;7.210;2024-03-08T13:43:54;9.38;;;8.32;;
11422;SDS011;5768;51.476;7.210;2024-03-08T13:49:03;8.85;;;7.90;;
11422;SDS011;5768;51.476;7.210;2024-03-08T13:54:08;9.07;;;8.23;;
11422;SDS011;5768;51.476;7.210;2024-03-08T13:59:11;8.63;;;7.72;;
11422;SDS011;5768;51.476;7.210;2024-03-08T14:04:15;9.10;;;8.30;;
11422;SDS011;5768;51.476;7.210;2024-03-08T14:09:18;9.15;;;8.25;;
11422;SDS011;5768;51.476;7.210;2024-03-08T14:14:21;9.25;;;8.38;;
11422;SDS011;5768;51.476;7.210;2024-03-08T14:19:25;9.50;;;8.60;;
11422;SDS011;5768;51.476;7.210;2024-03-08T14:24:31;10.20;;;9.20;;
11422;SDS011;5768;51.476;7.210;2024-03-08T14:29:35;10.32;;;9.00;;
11422;SDS011;5768;51.476;7.210;2024-03-08T14:34:48;9.27;;;8.48;;
11422;SDS011;5768;51.476;7.210;2024-03-08T14:39:50;10.27;;;9.32;;
11422;SDS011;5768;51.476;7.210;2024-03-08T14:44:52;10.25;;;9.35;;
11422;SDS011;5768;51.476;7.210;2024-03-08T14:49:57;10.68;;;9.63;;
11422;SDS011;5768;51.476;7.210;2024-03-08T14:55:00;10.55;;;9.57;;
11422;SDS011;5768;51.476;7.210;2024-03-08T15:00:07;10.95;;;9.90;;
11422;SDS011;5768;51.476;7.210;2024-03-08T15:05:18;10.98;;;9.98;;
11422;SDS011;5768;51.476;7.210;2024-03-08T15:10:21;11.52;;;10.55;;
11422;SDS011;5768;51.476;7.210;2024-03-08T15:15:26;11.30;;;10.30;;
11422;SDS011;5768;51.476;7.210;2024-03-08T15:20:34;13.30;;;10.90;;
11422;SDS011;5768;51.476;7.210;2024-03-08T15:25:36;11.48;;;10.48;;
11422;SDS011;5768;51.476;7.210;2024-03-08T15:30:42;12.25;;;11.05;;
11422;SDS011;5768;51.476;7.210;2024-03-08T15:35:48;12.52;;;11.43;;
11422;SDS011;5768;51.476;7.210;2024-03-08T15:40:59;11.02;;;10.02;;
11422;SDS011;5768;51.476;7.210;2024-03-08T15:46:02;11.45;;;10.35;;
11422;SDS011;5768;51.476;7.210;2024-03-08T15:51:07;11.30;;;10.30;;
11422;SDS011;5768;51.476;7.210;2024-03-08T15:56:11;12.48;;;11.38;;
11422;SDS011;5768;51.476;7.210;2024-03-08T16:01:14;12.15;;;11.05;;
11422;SDS011;5768;51.476;7.210;2024-03-08T16:06:22;12.88;;;11.63;;
11422;SDS011;5768;51.476;7.210;2024-03-08T16:11:26;12.57;;;11.30;;
11422;SDS011;5768;51.476;7.210;2024-03-08T16:16:29;10.73;;;9.73;;
11422;SDS011;5768;51.476;7.210;2024-03-08T16:21:33;10.38;;;9.48;;
11422;SDS011;5768;51.476;7.210;2024-03-08T16:26:36;11.02;;;9.93;;
11422;SDS011;5768;51.476;7.210;2024-03-08T16:31:39;12.50;;;11.40;;
11422;SDS011;5768;51.476;7.210;2024-03-08T16:36:47;13.45;;;12.00;;
11422;SDS011;5768;51.476;7.210;2024-03-08T16:41:49;13.68;;;12.27;;
11422;SDS011;5768;51.476;7.210;2024-03-08T16:46:52;13.55;;;12.15;;
11422;SDS011;5768;51.476;7.210;2024-03-08T16:51:56;13.65;;;12.32;;
11422;SDS011;5768;51.476;7.210;2024-03-08T16:56:59;13.15;;;11.82;;
11422;SDS011;5768;51.476;7.210;2024-03-08T17:02:03;13.95;;;12.55;;
11422;SDS011;5768;51.476;7.210;2024-03-08T17:07:08;13.35;;;11.95;;
11422;SDS011;5768;51.476;7.210;2024-03-08T17:12:11;14.07;;;12.65;;
11422;SDS011;5768;51.476;7.210;2024-03-08T17:17:19;13.98;;;12.57;;
11422;SDS011;5768;51.476;7.210;2024-03-08T17:22:22;13.55;;;12.15;;
11422;SDS011;5768;51.476;7.210;2024-03-08T17:27:27;12.05;;;10.80;;
11422;SDS011;5768;51.476;7.210;2024-03-08T17:32:29;12.45;;;10.90;;
11422;SDS011;5768;51.476;7.210;2024-03-08T17:37:36;11.88;;;10.63;;
11422;SDS011;5768;51.476;7.210;2024-03-08T17:42:39;14.25;;;12.30;;
11422;SDS011;5768;51.476;7.210;2024-03-08T17:47:43;13.07;;;11.70;;
11422;SDS011;5768;51.476;7.210;2024-03-08T17:52:47;15.48;;;13.50;;
11422;SDS011;5768;51.476;7.210;2024-03-08T17:57:52;15.55;;;12.43;;
11422;SDS011;5768;51.476;7.210;2024-03-08T18:02:55;15.55;;;12.57;;
11422;SDS011;5768;51.476;7.210;2024-03-08T18:08:00;15.48;;;12.77;;
11422;SDS011;5768;51.476;7.210;2024-03-08T18:13:04;13.38;;;11.88;;
11422;SDS011;5768;51.476;7.210;2024-03-08T18:18:12;21.83;;;16.83;;
11422;SDS011;5768;51.476;7.210;2024-03-08T18:23:16;17.10;;;14.80;;
11422;SDS011;5768;51.476;7.210;2024-03-08T18:28:20;15.55;;;13.95;;
11422;SDS011;5768;51.476;7.210;2024-03-08T18:33:23;24.20;;;19.40;;
11422;SDS011;5768;51.476;7.210;2024-03-08T18:38:29;18.90;;;15.77;;
11422;SDS011;5768;51.476;7.210;2024-03-08T18:43:31;17.00;;;13.88;;
11422;SDS011;5768;51.476;7.210;2024-03-08T18:48:37;16.90;;;15.20;;
11422;SDS011;5768;51.476;7.210;2024-03-08T18:53:43;16.52;;;14.82;;
11422;SDS011;5768;51.476;7.210;2024-03-08T18:58:46;16.98;;;15.18;;
11422;SDS011;5768;51.476;7.210;2024-03-08T19:03:48;17.92;;;15.02;;
11422;SDS011;5768;51.476;7.210;2024-03-08T19:08:52;17.88;;;15.98;;
11422;SDS011;5768;51.476;7.210;2024-03-08T19:13:55;20.92;;;17.40;;
11422;SDS011;5768;51.476;7.210;2024-03-08T19:18:59;19.80;;;17.38;;
11422;SDS011;5768;51.476;7.210;2024-03-08T19:24:03;20.45;;;18.02;;
11422;SDS011;5768;51.476;7.210;2024-03-08T19:29:07;21.58;;;18.20;;
11422;SDS011;5768;51.476;7.210;2024-03-08T19:34:11;19.58;;;17.50;;
11422;SDS011;5768;51.476;7.210;2024-03-08T19:39:16;20.57;;;18.33;;
11422;SDS011;5768;51.476;7.210;2024-03-08T19:44:20;21.45;;;19.25;;
11422;SDS011;5768;51.476;7.210;2024-03-08T19:49:24;20.47;;;18.30;;
11422;SDS011;5768;51.476;7.210;2024-03-08T19:54:28;21.65;;;19.35;;
11422;SDS011;5768;51.476;7.210;2024-03-08T19:59:32;21.58;;;18.80;;
11422;SDS011;5768;51.476;7.210;2024-03-08T20:04:41;21.37;;;19.13;;
11422;SDS011;5768;51.476;7.210;2024-03-08T20:15:49;23.57;;;20.53;;
11422;SDS011;5768;51.476;7.210;2024-03-08T20:21:07;24.37;;;20.80;;
11422;SDS011;5768;51.476;7.210;2024-03-08T20:26:12;25.50;;;20.90;;
11422;SDS011;5768;51.476;7.210;2024-03-08T20:31:16;25.53;;;22.17;;
11422;SDS011;5768;51.476;7.210;2024-03-08T20:36:20;22.93;;;20.43;;
11422;SDS011;5768;51.476;7.210;2024-03-08T20:41:24;24.97;;;21.17;;
11422;SDS011;5768;51.476;7.210;2024-03-08T20:46:27;25.23;;;20.73;;
11422;SDS011;5768;51.476;7.210;2024-03-08T20:51:30;25.23;;;22.00;;
11422;SDS011;5768;51.476;7.210;2024-03-08T20:56:35;26.87;;;23.30;;
11422;SDS011;5768;51.476;7.210;2024-03-08T21:01:40;25.77;;;22.00;;
11422;SDS011;5768;51.476;7.210;2024-03-08T21:06:43;26.20;;;22.50;;
11422;SDS011;5768;51.476;7.210;2024-03-08T21:11:47;30.93;;;23.13;;
11422;SDS011;5768;51.476;7.210;2024-03-08T21:16:49;23.40;;;20.90;;
11422;SDS011;5768;51.476;7.210;2024-03-08T21:21:51;27.77;;;22.70;;
11422;SDS011;5768;51.476;7.210;2024-03-08T21:26:56;26.07;;;22.53;;
11422;SDS011;5768;51.476;7.210;2024-03-08T21:32:00;25.00;;;21.87;;
11422;SDS011;5768;51.476;7.210;2024-03-08T21:37:04;24.67;;;21.20;;
11422;SDS011;5768;51.476;7.210;2024-03-08T21:42:08;25.60;;;21.60;;
11422;SDS011;5768;51.476;7.210;2024-03-08T21:47:11;27.47;;;22.77;;
11422;SDS011;5768;51.476;7.210;2024-03-08T21:52:13;26.33;;;22.53;;
11422;SDS011;5768;51.476;7.210;2024-03-08T21:57:17;26.63;;;23.33;;
11422;SDS011;5768;51.476;7.210;2024-03-08T22:02:20;24.07;;;20.87;;
11422;SDS011;5768;51.476;7.210;2024-03-08T22:07:22;25.23;;;21.20;;
11422;SDS011;5768;51.476;7.210;2024-03-08T22:12:26;25.87;;;20.90;;
11422;SDS011;5768;51.476;7.210;2024-03-08T22:17:31;25.57;;;22.37;;
11422;SDS011;5768;51.476;7.210;2024-03-08T22:22:36;28.50;;;23.47;;
11422;SDS011;5768;51.476;7.210;2024-03-08T22:27:40;25.33;;;21.40;;
11422;SDS011;5768;51.476;7.210;2024-03-08T22:32:42;23.57;;;20.93;;
11422;SDS011;5768;51.476;7.210;2024-03-08T22:37:45;23.97;;;20.73;;
11422;SDS011;5768;51.476;7.210;2024-03-08T22:42:49;27.47;;;22.43;;
11422;SDS011;5768;51.476;7.210;2024-03-08T22:47:52;26.27;;;22.03;;
11422;SDS011;5768;51.476;7.210;2024-03-08T22:52:54;25.80;;;21.77;;
11422;SDS011;5768;51.476;7.210;2024-03-08T22:57:58;24.03;;;21.43;;
11422;SDS011;5768;51.476;7.210;2024-03-08T23:03:01;26.43;;;21.90;;
11422;SDS011;5768;51.476;7.210;2024-03-08T23:08:03;28.47;;;23.27;;
11422;SDS011;5768;51.476;7.210;2024-03-08T23:13:07;27.67;;;23.47;;
11422;SDS011;5768;51.476;7.210;2024-03-08T23:18:10;26.73;;;22.40;;
11422;SDS011;5768;51.476;7.210;2024-03-08T23:23:13;26.23;;;21.20;;
11422;SDS011;5768;51.476;7.210;2024-03-08T23:28:18;24.97;;;21.77;;
11422;SDS011;5768;51.476;7.210;2024-03-08T23:33:20;27.23;;;22.70;;
11422;SDS011;5768;51.476;7.210;2024-03-08T23:38:23;26.97;;;23.00;;
11422;SDS011;5768;51.476;7.210;2024-03-08T23:43:26;25.60;;;22.57;;
11422;SDS011;5768;51.476;7.210;2024-03-08T23:48:28;26.60;;;22.37;;
11422;SDS011;5768;51.476;7.210;2024-03-08T23:53:30;25.83;;;22.53;;
11422;SDS011;5768;51.476;7.210;2024-03-08T23:58:34;27.27;;;23.90;;
